createdAt,value
2023-04-12T00:00:52.789Z,100312.94
2023-04-12T00:03:21.360Z,100305.63
2023-04-12T00:05:48.650Z,100296.63
2023-04-12T00:08:16.717Z,100290.38
2023-04-12T00:10:43.634Z,100284.44
2023-04-12T00:13:10.205Z,100277.34
2023-04-12T00:15:37.081Z,100261.84
2023-04-12T00:18:03.925Z,100268.38
2023-04-12T00:20:30.553Z,100255.88
2023-04-12T00:22:57.763Z,100246.88
2023-04-12T00:25:24.613Z,100228.44
2023-04-12T00:27:51.426Z,100218.88
2023-04-12T00:30:18.177Z,100220.28
2023-04-12T00:32:44.963Z,100216.22
2023-04-12T00:35:11.480Z,100213.22
2023-04-12T00:37:38.759Z,100195.28
2023-04-12T00:40:08.366Z,100186.59
2023-04-12T00:42:36.990Z,100191.25
2023-04-12T00:45:04.276Z,100173.81
2023-04-12T00:47:30.979Z,100168.69
2023-04-12T00:49:58.969Z,100163.81
2023-04-12T00:52:28.147Z,100159.19
2023-04-12T00:54:54.882Z,100155.97
2023-04-12T00:57:22.382Z,100140.72
2023-04-12T00:59:49.203Z,100129.84
2023-04-12T01:02:17.504Z,100130.97
2023-04-12T01:04:45.087Z,100116.25
2023-04-12T01:07:19.093Z,100107.59
2023-04-12T01:09:52.078Z,100092.38
2023-04-12T01:12:43.719Z,100089.66
2023-04-12T01:15:16.323Z,100095.09
2023-04-12T01:18:08.413Z,100077.47
2023-04-12T01:20:44.855Z,100075.88
2023-04-12T01:23:43.638Z,100055.19
2023-04-12T01:28:44.979Z,100054.69
2023-04-12T01:31:14.041Z,100036.75
2023-04-12T01:33:43.211Z,100028.91
2023-04-12T01:36:16.843Z,100022.06
2023-04-12T01:38:43.732Z,100007.94
2023-04-12T01:41:10.471Z,99997.06
2023-04-12T01:43:44.475Z,99995.47
2023-04-12T01:46:12.953Z,99985.69
2023-04-12T01:48:39.738Z,99977.53
2023-04-12T01:51:11.618Z,99983.25
2023-04-12T01:53:44.699Z,99982.16
2023-04-12T01:56:12.192Z,99972.19
2023-04-12T01:58:41.391Z,99961.31
2023-04-12T02:01:09.337Z,99964.81
2023-04-12T02:03:37.590Z,99963.22
2023-04-12T02:06:05.934Z,99952.66
2023-04-12T02:08:33.281Z,99951.84
2023-04-12T02:10:59.786Z,99940.97
2023-04-12T02:13:26.698Z,99934.72
2023-04-12T02:15:54.867Z,99923.03
2023-04-12T02:18:21.739Z,99922.22
2023-04-12T02:20:49.792Z,99916.00
2023-04-12T02:23:16.378Z,99902.72
2023-04-12T02:25:44.138Z,99902.72
2023-04-12T02:28:10.627Z,99902.72
2023-04-12T02:30:38.374Z,99894.84
2023-04-12T02:33:06.211Z,99895.16
2023-04-12T02:35:32.899Z,99897.06
2023-04-12T02:37:59.375Z,99886.19
2023-04-12T02:40:26.042Z,99889.19
2023-04-12T02:42:52.537Z,99883.75
2023-04-12T02:45:18.995Z,99869.88
2023-04-12T02:47:45.538Z,99857.69
2023-04-12T02:50:12.057Z,99854.97
2023-04-12T02:52:38.671Z,99852.56
2023-04-12T02:55:05.681Z,99857.47
2023-04-12T02:57:32.192Z,99859.09
2023-04-12T02:59:58.675Z,99843.41
2023-04-12T03:02:26.062Z,99836.03
2023-04-12T03:04:53.289Z,99835.25
2023-04-12T03:07:22.050Z,99821.94
2023-04-12T03:09:50.612Z,99821.13
2023-04-12T03:12:17.299Z,99835.84
2023-04-12T03:14:43.862Z,99816.81
2023-04-12T03:17:10.961Z,99819.53
2023-04-12T03:19:37.715Z,99814.38
2023-04-12T03:22:04.639Z,99815.19
2023-04-12T03:24:34.836Z,99802.22
2023-04-12T03:27:05.672Z,99801.91
2023-04-12T03:29:32.336Z,99779.66
2023-04-12T03:31:59.674Z,99776.13
2023-04-12T03:34:32.368Z,99771.00
2023-04-12T03:37:00.974Z,99783.47
2023-04-12T03:39:28.083Z,99767.19
2023-04-12T03:41:55.536Z,99762.84
2023-04-12T03:44:22.591Z,99756.91
2023-04-12T03:46:49.189Z,99755.03
2023-04-12T03:49:16.696Z,99759.94
2023-04-12T03:51:43.905Z,99768.88
2023-04-12T03:54:11.696Z,99765.06
2023-04-12T03:56:38.774Z,99747.47
2023-04-12T03:59:07.721Z,99753.69
2023-04-12T04:01:35.193Z,99745.56
2023-04-12T04:04:03.032Z,99752.09
2023-04-12T04:06:30.014Z,99749.06
2023-04-12T04:08:57.859Z,99762.34
2023-04-12T04:11:25.539Z,99753.38
2023-04-12T04:13:52.102Z,99765.88
2023-04-12T04:16:18.753Z,99766.88
2023-04-12T04:18:45.411Z,99769.81
2023-04-12T04:21:11.942Z,99769.50
2023-04-12T04:23:38.901Z,99759.94
2023-04-12T04:26:11.950Z,99764.25
2023-04-12T04:28:39.775Z,99771.81
2023-04-12T04:31:06.621Z,99771.50
2023-04-12T04:33:33.702Z,99778.84
2023-04-12T04:36:01.008Z,99780.44
2023-04-12T04:38:28.275Z,99778.53
2023-04-12T04:40:55.252Z,99783.19
2023-04-12T04:43:22.180Z,99768.78
2023-04-12T04:45:54.588Z,99770.38
2023-04-12T04:48:21.366Z,99772.31
2023-04-12T04:50:48.136Z,99758.72
2023-04-12T04:53:18.640Z,99771.50
2023-04-12T04:55:45.336Z,99772.31
2023-04-12T04:58:12.598Z,99776.13
2023-04-12T05:00:39.329Z,99762.84
2023-04-12T05:03:06.319Z,99769.38
2023-04-12T05:05:33.373Z,99768.28
2023-04-12T05:07:59.955Z,99761.75
2023-04-12T05:10:26.549Z,99772.63
2023-04-12T05:12:53.145Z,99759.81
2023-04-12T05:15:21.285Z,99754.38
2023-04-12T05:17:47.930Z,99766.06
2023-04-12T05:20:14.673Z,99763.34
2023-04-12T05:22:41.256Z,99768.78
2023-04-12T05:25:08.188Z,99753.28
2023-04-12T05:27:34.751Z,99744.84
2023-04-12T05:30:01.442Z,99761.13
2023-04-12T05:32:28.010Z,99759.81
2023-04-12T05:34:54.635Z,99764.94
2023-04-12T05:37:21.168Z,99780.16
2023-04-12T05:39:47.800Z,99792.13
2023-04-12T05:42:14.406Z,99769.56
2023-04-12T05:44:41.544Z,99764.94
2023-04-12T05:47:08.180Z,99770.09
2023-04-12T05:49:34.899Z,99768.19
2023-04-12T05:52:02.314Z,99770.59
2023-04-12T05:54:28.998Z,99767.88
2023-04-12T05:56:55.559Z,99767.88
2023-04-12T05:59:22.693Z,99773.63
2023-04-12T06:01:49.363Z,99771.69
2023-04-12T06:04:16.168Z,99760.03
2023-04-12T06:06:43.653Z,99778.72
2023-04-12T06:09:10.605Z,99769.78
2023-04-12T06:11:39.235Z,99780.66
2023-04-12T06:14:06.192Z,99774.41
2023-04-12T06:16:32.754Z,99776.03
2023-04-12T06:18:59.575Z,99783.38
2023-04-12T06:21:26.773Z,99779.84
2023-04-12T06:23:53.358Z,99777.13
2023-04-12T06:26:19.977Z,99774.41
2023-04-12T06:28:46.876Z,99774.41
2023-04-12T06:31:13.434Z,99777.13
2023-04-12T06:33:39.973Z,99779.84
2023-04-12T06:36:07.098Z,99778.72
2023-04-12T06:38:33.940Z,99772.50
2023-04-12T06:41:00.685Z,99783.38
2023-04-12T06:43:27.239Z,99777.13
2023-04-12T06:45:54.267Z,99780.66
2023-04-12T06:48:20.890Z,99783.09
2023-04-12T06:50:47.563Z,99774.09
2023-04-12T06:53:14.238Z,99777.66
2023-04-12T06:55:41.368Z,99766.78
2023-04-12T06:58:07.939Z,99776.03
2023-04-12T07:00:34.848Z,99767.56
2023-04-12T07:03:01.832Z,99774.09
2023-04-12T07:05:28.523Z,99770.28
2023-04-12T07:07:55.057Z,99779.53
2023-04-12T07:10:21.540Z,99772.22
2023-04-12T07:12:48.027Z,99757.50
2023-04-12T07:15:14.554Z,99751.25
2023-04-12T07:17:41.232Z,99750.16
2023-04-12T07:20:08.035Z,99744.72
2023-04-12T07:22:34.568Z,99744.72
2023-04-12T07:25:01.150Z,99750.16
2023-04-12T07:27:27.715Z,99735.44
2023-04-12T07:29:54.602Z,99737.06
2023-04-12T07:32:21.487Z,99726.47
2023-04-12T07:34:48.059Z,99739.28
2023-04-12T07:37:14.644Z,99735.44
2023-04-12T07:39:41.374Z,99721.84
2023-04-12T07:42:07.947Z,99731.91
2023-04-12T07:44:37.111Z,99732.72
2023-04-12T07:47:05.227Z,99724.56
2023-04-12T07:49:31.726Z,99731.63
2023-04-12T07:51:58.693Z,99732.72
2023-04-12T07:54:28.045Z,99722.97
2023-04-12T07:57:04.916Z,99720.25
2023-04-12T07:59:31.964Z,99710.50
2023-04-12T08:01:59.071Z,99721.03
2023-04-12T08:04:25.903Z,99726.47
2023-04-12T08:06:52.485Z,99728.91
2023-04-12T08:09:18.997Z,99735.16
2023-04-12T08:11:45.690Z,99729.19
2023-04-12T08:14:12.139Z,99739.78
2023-04-12T08:16:39.118Z,99741.38
2023-04-12T08:19:05.582Z,99734.84
2023-04-12T08:21:32.606Z,99748.44
2023-04-12T08:23:59.671Z,99728.28
2023-04-12T08:26:30.002Z,99727.47
2023-04-12T08:28:57.743Z,99741.88
2023-04-12T08:31:24.473Z,99730.72
2023-04-12T08:33:51.202Z,99727.19
2023-04-12T08:36:17.781Z,99726.38
2023-04-12T08:38:46.401Z,99725.56
2023-04-12T08:41:14.161Z,99723.66
2023-04-12T08:43:45.089Z,99729.09
2023-04-12T08:46:15.606Z,99730.72
2023-04-12T08:48:47.140Z,99726.38
2023-04-12T08:51:16.549Z,99735.34
2023-04-12T08:53:43.350Z,99736.16
2023-04-12T08:56:13.912Z,99723.66
2023-04-12T08:58:41.827Z,99732.31
2023-04-12T09:01:19.923Z,99730.72
2023-04-12T09:03:47.067Z,99731.00
2023-04-12T09:06:13.959Z,99735.03
2023-04-12T09:08:54.593Z,99740.16
2023-04-12T09:11:23.460Z,99741.97
2023-04-12T09:13:50.299Z,99729.66
2023-04-12T09:16:17.247Z,99734.81
2023-04-12T09:18:51.263Z,99727.44
2023-04-12T09:21:18.535Z,99729.38
2023-04-12T09:23:45.369Z,99735.63
2023-04-12T09:26:28.866Z,99717.88
2023-04-12T09:28:55.456Z,99715.66
2023-04-12T09:31:21.999Z,99717.25
2023-04-12T09:33:48.682Z,99722.69
2023-04-12T09:36:17.418Z,99723.53
2023-04-12T09:39:04.379Z,99730.56
2023-04-12T09:41:32.028Z,99730.56
2023-04-12T09:44:01.910Z,99734.09
2023-04-12T09:46:28.777Z,99725.91
2023-04-12T09:48:59.102Z,99720.47
2023-04-12T09:51:31.184Z,99726.72
2023-04-12T09:54:03.005Z,99725.91
2023-04-12T09:56:32.377Z,99732.16
2023-04-12T09:59:04.406Z,99739.19
2023-04-12T10:01:40.122Z,99735.69
2023-04-12T10:04:08.284Z,99737.28
2023-04-12T10:06:37.268Z,99753.31
2023-04-12T10:09:05.041Z,99735.88
2023-04-12T10:11:33.970Z,99741.03
2023-04-12T10:14:02.522Z,99746.66
2023-04-12T10:16:31.050Z,99740.59
2023-04-12T10:19:04.184Z,99747.69
2023-04-12T10:21:31.393Z,99751.19
2023-04-12T10:23:58.216Z,99748.16
2023-04-12T10:26:24.800Z,99742.72
2023-04-12T10:29:26.396Z,99745.44
2023-04-12T10:31:57.622Z,99746.25
2023-04-12T10:34:28.096Z,99744.31
2023-04-12T10:36:57.214Z,99753.31
2023-04-12T10:39:42.244Z,99747.88
2023-04-12T10:42:19.901Z,99747.03
2023-04-12T10:44:47.619Z,99741.31
2023-04-12T10:47:14.511Z,99736.66
2023-04-12T10:49:41.429Z,99745.34
2023-04-12T10:52:13.746Z,99746.94
2023-04-12T10:54:40.728Z,99759.75
2023-04-12T10:57:08.041Z,99763.28
2023-04-12T11:00:07.216Z,99762.16
2023-04-12T11:02:36.678Z,99757.31
2023-04-12T11:05:11.161Z,99753.19
2023-04-12T11:07:43.075Z,99755.91
2023-04-12T11:10:17.301Z,99767.59
2023-04-12T11:12:57.117Z,99757.50
2023-04-12T11:15:27.122Z,99760.22
2023-04-12T11:17:57.642Z,99752.88
2023-04-12T11:20:27.225Z,99764.25
2023-04-12T11:22:54.039Z,99765.56
2023-04-12T11:25:20.848Z,99763.47
2023-04-12T11:27:51.907Z,99770.50
2023-04-12T11:30:19.956Z,99775.16
2023-04-12T11:32:47.918Z,99772.72
2023-04-12T11:35:20.347Z,99762.66
2023-04-12T11:37:47.198Z,99767.28
2023-04-12T11:40:14.757Z,99776.56
2023-04-12T11:42:41.607Z,99771.91
2023-04-12T11:45:15.930Z,99777.66
2023-04-12T11:47:45.857Z,99792.88
2023-04-12T11:50:12.590Z,99789.03
2023-04-12T11:52:41.175Z,99790.16
2023-04-12T11:55:11.107Z,99788.56
2023-04-12T11:57:38.804Z,99787.75
2023-04-12T12:00:06.559Z,99786.63
2023-04-12T12:02:42.975Z,99802.97
2023-04-12T12:05:16.746Z,99802.16
2023-04-12T12:07:43.879Z,99787.44
2023-04-12T12:10:10.784Z,99782.00
2023-04-12T12:12:37.368Z,99775.44
2023-04-12T12:15:04.252Z,99776.25
2023-04-12T12:17:35.837Z,99776.25
2023-04-12T12:20:04.731Z,99782.50
2023-04-12T12:22:31.428Z,99785.22
2023-04-12T12:25:00.296Z,99797.72
2023-04-12T12:27:38.464Z,99803.16
2023-04-12T12:30:08.452Z,99793.88
2023-04-12T12:32:37.129Z,99799.63
2023-04-12T12:35:09.640Z,99800.44
2023-04-12T12:37:36.582Z,99798.50
2023-04-12T12:40:14.149Z,99793.88
2023-04-12T12:42:55.133Z,99796.31
2023-04-12T12:45:24.343Z,99785.59
2023-04-12T12:47:54.990Z,99789.94
2023-04-12T12:50:26.830Z,99782.25
2023-04-12T12:52:54.816Z,99777.31
2023-04-12T12:55:22.780Z,99777.81
2023-04-12T12:58:06.145Z,99782.16
2023-04-12T13:00:34.624Z,99769.34
2023-04-12T13:03:01.762Z,99773.66
2023-04-12T13:05:28.698Z,99769.81
2023-04-12T13:07:55.607Z,99767.09
2023-04-12T13:10:22.287Z,99774.97
2023-04-12T13:12:48.821Z,99763.28
2023-04-12T13:17:45.001Z,99775.25
2023-04-12T13:20:11.652Z,99774.47
2023-04-12T13:22:38.351Z,99770.13
2023-04-12T13:25:05.392Z,99772.06
2023-04-12T13:27:32.072Z,99774.28
2023-04-12T13:29:58.799Z,99775.41
2023-04-12T13:32:25.908Z,99766.44
2023-04-12T13:34:52.569Z,99757.47
2023-04-12T13:37:19.077Z,99762.91
2023-04-12T13:39:45.824Z,99758.88
2023-04-12T13:42:12.491Z,99763.19
2023-04-12T13:44:39.048Z,99769.75
2023-04-12T13:47:05.705Z,99765.91
2023-04-12T13:49:32.479Z,99752.31
2023-04-12T13:51:59.010Z,99755.88
2023-04-12T13:54:26.066Z,99740.00
2023-04-12T13:56:52.570Z,99753.34
2023-04-12T13:59:19.100Z,99739.41
2023-04-12T14:01:45.832Z,99732.56
2023-04-12T14:04:12.760Z,99733.03
2023-04-12T14:06:39.366Z,99731.91
2023-04-12T14:09:05.853Z,99734.34
2023-04-12T14:11:46.117Z,99732.09
2023-04-12T14:14:14.871Z,99728.75
2023-04-12T14:16:43.147Z,99725.75
2023-04-12T14:19:09.695Z,99728.47
2023-04-12T14:21:36.528Z,99717.56
2023-04-12T14:24:03.604Z,99737.44
2023-04-12T14:26:30.227Z,99730.06
2023-04-12T14:28:56.936Z,99730.84
2023-04-12T14:31:23.710Z,99724.00
2023-04-12T14:33:50.339Z,99720.16
2023-04-12T14:36:17.023Z,99714.38
2023-04-12T14:38:44.285Z,99712.16
2023-04-12T14:41:11.552Z,99696.63
2023-04-12T14:43:38.056Z,99703.38
2023-04-12T14:46:04.932Z,99705.78
2023-04-12T14:48:31.607Z,99704.38
2023-04-12T14:50:58.223Z,99705.97
2023-04-12T14:53:24.793Z,99704.53
2023-04-12T14:55:51.373Z,99702.63
2023-04-12T14:58:18.257Z,99700.69
2023-04-12T15:00:44.768Z,99696.84
2023-04-12T15:03:11.522Z,99693.50
2023-04-12T15:05:38.138Z,99699.75
2023-04-12T15:08:04.962Z,99706.84
2023-04-12T15:10:31.747Z,99702.66
2023-04-12T15:12:58.375Z,99692.88
2023-04-12T15:15:24.971Z,99692.56
2023-04-12T15:17:51.524Z,99677.84
2023-04-12T15:20:18.105Z,99681.38
2023-04-12T15:22:44.711Z,99688.41
2023-04-12T15:25:11.871Z,99685.19
2023-04-12T15:27:38.540Z,99688.75
2023-04-12T15:30:08.287Z,99687.63
2023-04-12T15:32:38.591Z,99695.00
2023-04-12T15:35:22.830Z,99699.13
2023-04-12T15:37:54.943Z,99700.25
2023-04-12T15:40:22.994Z,99704.09
2023-04-12T15:42:49.723Z,99700.88
2023-04-12T15:45:16.220Z,99706.31
2023-04-12T15:47:42.862Z,99702.47
2023-04-12T15:50:09.752Z,99698.97
2023-04-12T15:52:36.444Z,99705.19
2023-04-12T15:55:04.771Z,99696.75
2023-04-12T15:57:31.553Z,99694.81
2023-04-12T15:59:59.533Z,99690.50
2023-04-12T16:02:26.666Z,99690.97
2023-04-12T16:04:56.117Z,99698.00
2023-04-12T16:07:22.815Z,99693.69
2023-04-12T16:09:49.508Z,99687.44
2023-04-12T16:12:16.058Z,99692.38
2023-04-12T16:14:42.675Z,99690.50
2023-04-12T16:17:09.246Z,99683.13
2023-04-12T16:19:35.916Z,99680.69
2023-04-12T16:22:03.548Z,99676.88
2023-04-12T16:24:30.217Z,99671.44
2023-04-12T16:26:57.452Z,99677.69
2023-04-12T16:29:24.417Z,99681.19
2023-04-12T16:31:52.220Z,99672.69
2023-04-12T16:34:21.914Z,99671.91
2023-04-12T16:36:49.054Z,99662.94
2023-04-12T16:39:16.587Z,99669.97
2023-04-12T16:41:43.960Z,99651.25
2023-04-12T16:44:10.741Z,99666.78
2023-04-12T16:46:37.661Z,99660.53
2023-04-12T16:49:04.826Z,99661.34
2023-04-12T16:51:36.702Z,99658.28
2023-04-12T16:54:04.087Z,99658.91
2023-04-12T16:56:30.661Z,99654.25
2023-04-12T16:58:59.008Z,99649.94
2023-04-12T17:01:25.656Z,99644.19
2023-04-12T17:03:52.415Z,99655.72
2023-04-12T17:06:19.528Z,99658.91
2023-04-12T17:08:46.636Z,99639.06
2023-04-12T17:11:13.306Z,99649.13
2023-04-12T17:13:39.917Z,99653.00
2023-04-12T17:16:06.974Z,99633.94
2023-04-12T17:18:34.709Z,99630.69
2023-04-12T17:21:01.388Z,99631.50
2023-04-12T17:23:28.738Z,99631.81
2023-04-12T17:25:56.096Z,99617.41
2023-04-12T17:28:22.612Z,99619.63
2023-04-12T17:30:49.244Z,99623.16
2023-04-12T17:33:18.461Z,99609.06
2023-04-12T17:35:46.311Z,99611.00
2023-04-12T17:38:12.965Z,99615.94
2023-04-12T17:40:39.802Z,99608.91
2023-04-12T17:43:06.345Z,99613.22
2023-04-12T17:45:33.778Z,99602.66
2023-04-12T17:48:00.468Z,99608.09
2023-04-12T17:50:27.178Z,99608.91
2023-04-12T17:52:55.450Z,99602.94
2023-04-12T17:55:25.884Z,99595.44
2023-04-12T17:57:55.376Z,99603.59
2023-04-12T18:00:24.061Z,99595.72
2023-04-12T18:02:51.051Z,99595.72
2023-04-12T18:05:18.309Z,99598.16
2023-04-12T18:07:44.787Z,99595.44
2023-04-12T18:10:15.609Z,99594.59
2023-04-12T18:12:44.192Z,99593.81
2023-04-12T18:15:11.380Z,99585.63
2023-04-12T18:17:39.742Z,99586.44
2023-04-12T18:20:11.394Z,99591.41
2023-04-12T18:22:38.804Z,99583.25
2023-04-12T18:25:06.764Z,99583.72
2023-04-12T18:27:33.353Z,99589.16
2023-04-12T18:30:01.400Z,99579.91
2023-04-12T18:32:28.012Z,99581.31
2023-04-12T18:34:54.812Z,99574.75
2023-04-12T18:37:21.654Z,99576.66
2023-04-12T18:39:48.195Z,99567.72
2023-04-12T18:42:14.772Z,99555.53
2023-04-12T18:44:42.132Z,99555.22
2023-04-12T18:47:08.941Z,99562.59
2023-04-12T18:49:35.488Z,99547.34
2023-04-12T18:52:02.052Z,99552.31
2023-04-12T18:54:29.036Z,99544.97
2023-04-12T18:56:58.009Z,99544.16
2023-04-12T18:59:25.030Z,99542.53
2023-04-12T19:01:51.592Z,99547.97
2023-04-12T19:04:18.566Z,99542.06
2023-04-12T19:06:46.308Z,99544.47
2023-04-12T19:09:12.987Z,99547.19
2023-04-12T19:11:40.125Z,99544.47
2023-04-12T19:14:07.620Z,99530.38
2023-04-12T19:16:35.188Z,99525.72
2023-04-12T19:19:02.158Z,99522.22
2023-04-12T19:21:28.996Z,99522.50
2023-04-12T19:23:55.742Z,99513.53
2023-04-12T19:26:23.018Z,99512.44
2023-04-12T19:28:52.380Z,99524.44
2023-04-12T19:31:19.097Z,99509.22
2023-04-12T19:33:45.980Z,99516.28
2023-04-12T19:36:13.212Z,99509.56
2023-04-12T19:38:43.080Z,99497.84
2023-04-12T19:41:09.714Z,99509.56
2023-04-12T19:43:36.255Z,99497.03
2023-04-12T19:46:03.733Z,99484.56
2023-04-12T19:48:31.052Z,99486.78
2023-04-12T19:50:58.008Z,99472.88
2023-04-12T19:53:24.558Z,99464.22
2023-04-12T19:55:52.447Z,99452.53
2023-04-12T19:58:18.998Z,99456.38
2023-04-12T20:00:51.817Z,99454.78
2023-04-12T20:03:18.499Z,99450.13
2023-04-12T20:05:46.037Z,99433.63
2023-04-12T20:08:12.660Z,99444.53
2023-04-12T20:10:39.242Z,99437.47
2023-04-12T20:13:09.734Z,99429.63
2023-04-12T20:15:36.481Z,99416.00
2023-04-12T20:18:05.001Z,99417.47
2023-04-12T20:20:32.879Z,99413.91
2023-04-12T20:22:59.461Z,99404.97
2023-04-12T20:25:25.938Z,99409.59
2023-04-12T20:27:52.647Z,99396.31
2023-04-12T20:30:21.163Z,99391.19
2023-04-12T20:32:54.166Z,99381.94
2023-04-12T20:35:21.595Z,99374.88
2023-04-12T20:37:50.546Z,99367.50
2023-04-12T20:40:18.085Z,99370.22
2023-04-12T20:42:45.290Z,99364.31
2023-04-12T20:45:12.229Z,99359.66
2023-04-12T20:47:38.881Z,99369.75
2023-04-12T20:50:06.060Z,99361.41
2023-04-12T20:52:32.574Z,99339.66
2023-04-12T20:54:59.072Z,99344.31
2023-04-12T20:57:27.620Z,99323.16
2023-04-12T20:59:55.433Z,99327.81
2023-04-12T21:02:22.350Z,99323.50
2023-04-12T21:04:49.182Z,99311.78
2023-04-12T21:07:16.000Z,99307.19
2023-04-12T21:09:42.504Z,99319.94
2023-04-12T21:12:09.738Z,99312.13
2023-04-12T21:14:37.788Z,99310.53
2023-04-12T21:17:07.094Z,99314.03
2023-04-12T21:19:38.954Z,99297.22
2023-04-12T21:22:07.069Z,99317.41
2023-04-12T21:24:38.168Z,99311.47
2023-04-12T21:27:07.418Z,99318.00
2023-04-12T21:29:41.162Z,99321.03
2023-04-12T21:32:08.586Z,99337.34
2023-04-12T21:34:35.559Z,99329.81
2023-04-12T21:37:02.735Z,99337.50
2023-04-12T21:39:29.340Z,99309.50
2023-04-12T21:41:59.081Z,99313.84
2023-04-12T21:44:25.772Z,99297.53
2023-04-12T21:46:52.461Z,99292.38
2023-04-12T21:49:18.989Z,99290.78
2023-04-12T21:51:46.867Z,99283.75
2023-04-12T21:54:13.448Z,99284.56
2023-04-12T21:56:39.926Z,99282.13
2023-04-12T21:59:07.175Z,99263.44
2023-04-12T22:01:34.632Z,99263.75
2023-04-12T22:04:01.502Z,99251.25
2023-04-12T22:06:28.075Z,99267.56
2023-04-12T22:08:55.561Z,99252.38
2023-04-12T22:11:22.104Z,99251.59
2023-04-12T22:13:48.630Z,99253.50
2023-04-12T22:16:15.787Z,99256.53
2023-04-12T22:18:47.022Z,99246.31
2023-04-12T22:21:13.688Z,99262.78
2023-04-12T22:23:40.702Z,99259.06
2023-04-12T22:26:08.687Z,99261.50
2023-04-12T22:28:38.524Z,99260.53
2023-04-12T22:31:06.114Z,99265.97
2023-04-12T22:33:32.773Z,99255.41
2023-04-12T22:35:59.288Z,99253.81
2023-04-12T22:38:25.956Z,99253.00
2023-04-12T22:40:54.529Z,99252.50
2023-04-12T22:43:22.838Z,99244.84
2023-04-12T22:45:49.401Z,99253.00
2023-04-12T22:48:15.967Z,99260.66
2023-04-12T22:50:44.561Z,99246.59
2023-04-12T22:53:11.540Z,99253.63
2023-04-12T22:55:39.038Z,99254.25
2023-04-12T22:58:07.189Z,99248.81
2023-04-12T23:00:36.701Z,99246.09
2023-04-12T23:03:04.234Z,99241.47
2023-04-12T23:05:31.020Z,99235.56
2023-04-12T23:07:57.671Z,99237.00
2023-04-12T23:10:24.130Z,99235.41
2023-04-12T23:12:54.630Z,99232.69
2023-04-12T23:15:21.116Z,99223.72
2023-04-12T23:17:49.996Z,99229.47
2023-04-12T23:20:17.110Z,99227.88
2023-04-12T23:22:56.697Z,99224.97
2023-04-12T23:25:37.850Z,99224.97
2023-04-12T23:28:13.455Z,99224.50
2023-04-12T23:30:49.019Z,99218.28
2023-04-12T23:33:20.660Z,99225.59
2023-04-12T23:35:49.444Z,99222.09
2023-04-12T23:38:23.221Z,99224.00
2023-04-12T23:40:53.916Z,99212.34
2023-04-12T23:43:25.043Z,99224.63
2023-04-12T23:45:52.621Z,99224.63
2023-04-12T23:48:19.322Z,99231.69
2023-04-12T23:50:46.040Z,99232.00
2023-04-12T23:53:12.988Z,99234.25
2023-04-12T23:55:39.898Z,99231.53
2023-04-12T23:58:06.604Z,99224.47
